sensor_id;sensor_type;location;lat;lon;timestamp;P1;durP1;ratioP1;P2;durP2;ratioP2
11346;SDS011;5728;42.722;23.258;2024-03-25T00:01:04;1.03;;;1.00;;
11346;SDS011;5728;42.722;23.258;2024-03-25T00:03:30;0.90;;;0.90;;
11346;SDS011;5728;42.722;23.258;2024-03-25T00:05:57;1.27;;;1.17;;
11346;SDS011;5728;42.722;23.258;2024-03-25T00:08:23;0.93;;;0.90;;
11346;SDS011;5728;42.722;23.258;2024-03-25T00:10:50;0.90;;;0.90;;
11346;SDS011;5728;42.722;23.258;2024-03-25T00:13:17;0.90;;;0.90;;
11346;SDS011;5728;42.722;23.258;2024-03-25T00:15:45;0.90;;;0.90;;
11346;SDS011;5728;42.722;23.258;2024-03-25T00:18:12;0.80;;;0.80;;
11346;SDS011;5728;42.722;23.258;2024-03-25T00:20:40;0.80;;;0.80;;
11346;SDS011;5728;42.722;23.258;2024-03-25T00:23:06;0.90;;;0.90;;
11346;SDS011;5728;42.722;23.258;2024-03-25T00:25:33;0.80;;;0.80;;
11346;SDS011;5728;42.722;23.258;2024-03-25T00:27:59;1.00;;;1.00;;
11346;SDS011;5728;42.722;23.258;2024-03-25T00:30:26;0.83;;;0.83;;
11346;SDS011;5728;42.722;23.258;2024-03-25T00:32:52;0.87;;;0.87;;
11346;SDS011;5728;42.722;23.258;2024-03-25T00:35:20;0.90;;;0.90;;
11346;SDS011;5728;42.722;23.258;2024-03-25T00:37:46;1.37;;;1.13;;
11346;SDS011;5728;42.722;23.258;2024-03-25T00:40:14;1.23;;;1.13;;
11346;SDS011;5728;42.722;23.258;2024-03-25T00:42:40;1.13;;;1.03;;
11346;SDS011;5728;42.722;23.258;2024-03-25T00:45:07;1.00;;;0.93;;
11346;SDS011;5728;42.722;23.258;2024-03-25T00:47:34;1.20;;;1.10;;
11346;SDS011;5728;42.722;23.258;2024-03-25T00:50:02;1.03;;;0.90;;
11346;SDS011;5728;42.722;23.258;2024-03-25T00:52:29;1.03;;;1.00;;
11346;SDS011;5728;42.722;23.258;2024-03-25T00:54:56;1.30;;;1.20;;
11346;SDS011;5728;42.722;23.258;2024-03-25T00:57:22;1.10;;;1.00;;
11346;SDS011;5728;42.722;23.258;2024-03-25T00:59:49;1.00;;;0.90;;
11346;SDS011;5728;42.722;23.258;2024-03-25T01:02:15;0.90;;;0.90;;
11346;SDS011;5728;42.722;23.258;2024-03-25T01:04:42;0.90;;;0.90;;
11346;SDS011;5728;42.722;23.258;2024-03-25T01:07:08;2.43;;;1.00;;
11346;SDS011;5728;42.722;23.258;2024-03-25T01:09:37;0.97;;;0.93;;
11346;SDS011;5728;42.722;23.258;2024-03-25T01:12:03;0.80;;;0.80;;
11346;SDS011;5728;42.722;23.258;2024-03-25T01:14:31;1.03;;;1.03;;
11346;SDS011;5728;42.722;23.258;2024-03-25T01:16:57;1.00;;;0.90;;
11346;SDS011;5728;42.722;23.258;2024-03-25T01:19:24;0.97;;;0.93;;
11346;SDS011;5728;42.722;23.258;2024-03-25T01:21:50;0.80;;;0.80;;
11346;SDS011;5728;42.722;23.258;2024-03-25T01:24:17;1.00;;;0.90;;
11346;SDS011;5728;42.722;23.258;2024-03-25T01:26:44;1.00;;;1.00;;
11346;SDS011;5728;42.722;23.258;2024-03-25T01:29:11;1.10;;;1.00;;
11346;SDS011;5728;42.722;23.258;2024-03-25T01:31:37;0.90;;;0.90;;
11346;SDS011;5728;42.722;23.258;2024-03-25T01:34:04;0.80;;;0.80;;
11346;SDS011;5728;42.722;23.258;2024-03-25T01:36:31;0.80;;;0.80;;
11346;SDS011;5728;42.722;23.258;2024-03-25T01:38:58;0.90;;;0.90;;
11346;SDS011;5728;42.722;23.258;2024-03-25T01:41:24;0.83;;;0.83;;
11346;SDS011;5728;42.722;23.258;2024-03-25T01:43:53;0.80;;;0.80;;
11346;SDS011;5728;42.722;23.258;2024-03-25T01:46:19;1.00;;;0.90;;
11346;SDS011;5728;42.722;23.258;2024-03-25T01:48:47;0.90;;;0.90;;
11346;SDS011;5728;42.722;23.258;2024-03-25T01:51:16;1.10;;;0.93;;
11346;SDS011;5728;42.722;23.258;2024-03-25T01:53:45;0.80;;;0.80;;
11346;SDS011;5728;42.722;23.258;2024-03-25T01:56:12;0.80;;;0.80;;
11346;SDS011;5728;42.722;23.258;2024-03-25T01:58:41;0.80;;;0.80;;
11346;SDS011;5728;42.722;23.258;2024-03-25T02:01:09;0.90;;;0.90;;
11346;SDS011;5728;42.722;23.258;2024-03-25T02:03:39;1.00;;;1.00;;
11346;SDS011;5728;42.722;23.258;2024-03-25T02:06:06;0.90;;;0.90;;
11346;SDS011;5728;42.722;23.258;2024-03-25T02:08:38;3.47;;;0.97;;
11346;SDS011;5728;42.722;23.258;2024-03-25T02:11:05;0.80;;;0.80;;
11346;SDS011;5728;42.722;23.258;2024-03-25T02:13:50;0.90;;;0.90;;
11346;SDS011;5728;42.722;23.258;2024-03-25T02:16:19;1.00;;;1.00;;
11346;SDS011;5728;42.722;23.258;2024-03-25T02:18:45;0.97;;;0.97;;
11346;SDS011;5728;42.722;23.258;2024-03-25T02:21:12;1.00;;;1.00;;
11346;SDS011;5728;42.722;23.258;2024-03-25T02:23:38;0.80;;;0.80;;
11346;SDS011;5728;42.722;23.258;2024-03-25T02:26:08;0.90;;;0.90;;
11346;SDS011;5728;42.722;23.258;2024-03-25T02:28:34;1.03;;;0.90;;
11346;SDS011;5728;42.722;23.258;2024-03-25T02:31:01;1.20;;;1.10;;
11346;SDS011;5728;42.722;23.258;2024-03-25T02:33:27;1.00;;;1.00;;
11346;SDS011;5728;42.722;23.258;2024-03-25T02:35:54;1.37;;;1.27;;
11346;SDS011;5728;42.722;23.258;2024-03-25T02:38:20;0.90;;;0.90;;
11346;SDS011;5728;42.722;23.258;2024-03-25T02:40:48;0.83;;;0.83;;
11346;SDS011;5728;42.722;23.258;2024-03-25T02:43:16;1.07;;;1.00;;
11346;SDS011;5728;42.722;23.258;2024-03-25T02:45:46;0.87;;;0.87;;
11346;SDS011;5728;42.722;23.258;2024-03-25T02:48:12;1.10;;;1.00;;
11346;SDS011;5728;42.722;23.258;2024-03-25T02:50:39;0.90;;;0.90;;
11346;SDS011;5728;42.722;23.258;2024-03-25T02:53:05;0.83;;;0.83;;
11346;SDS011;5728;42.722;23.258;2024-03-25T02:55:32;0.87;;;0.87;;
11346;SDS011;5728;42.722;23.258;2024-03-25T02:57:58;0.90;;;0.90;;
11346;SDS011;5728;42.722;23.258;2024-03-25T03:00:26;0.90;;;0.90;;
11346;SDS011;5728;42.722;23.258;2024-03-25T03:02:52;1.00;;;1.00;;
11346;SDS011;5728;42.722;23.258;2024-03-25T03:05:19;1.00;;;1.00;;
11346;SDS011;5728;42.722;23.258;2024-03-25T03:07:45;1.20;;;1.10;;
11346;SDS011;5728;42.722;23.258;2024-03-25T03:10:12;1.00;;;1.00;;
11346;SDS011;5728;42.722;23.258;2024-03-25T03:12:38;1.40;;;1.30;;
11346;SDS011;5728;42.722;23.258;2024-03-25T03:15:06;1.33;;;1.23;;
11346;SDS011;5728;42.722;23.258;2024-03-25T03:17:34;1.27;;;1.17;;
11346;SDS011;5728;42.722;23.258;2024-03-25T03:20:01;1.30;;;1.20;;
11346;SDS011;5728;42.722;23.258;2024-03-25T03:22:27;1.00;;;1.00;;
11346;SDS011;5728;42.722;23.258;2024-03-25T03:24:54;1.30;;;1.20;;
11346;SDS011;5728;42.722;23.258;2024-03-25T03:27:21;0.90;;;0.90;;
11346;SDS011;5728;42.722;23.258;2024-03-25T03:29:48;1.17;;;1.07;;
11346;SDS011;5728;42.722;23.258;2024-03-25T03:32:14;1.00;;;1.00;;
11346;SDS011;5728;42.722;23.258;2024-03-25T03:34:43;1.13;;;1.03;;
11346;SDS011;5728;42.722;23.258;2024-03-25T03:37:09;1.70;;;1.40;;
11346;SDS011;5728;42.722;23.258;2024-03-25T03:39:36;1.23;;;1.03;;
11346;SDS011;5728;42.722;23.258;2024-03-25T03:42:02;1.20;;;1.10;;
11346;SDS011;5728;42.722;23.258;2024-03-25T03:44:29;1.30;;;1.20;;
11346;SDS011;5728;42.722;23.258;2024-03-25T03:46:55;1.33;;;1.23;;
11346;SDS011;5728;42.722;23.258;2024-03-25T03:49:22;1.20;;;1.10;;
11346;SDS011;5728;42.722;23.258;2024-03-25T03:51:49;1.40;;;1.30;;
11346;SDS011;5728;42.722;23.258;2024-03-25T03:54:16;6.07;;;1.80;;
11346;SDS011;5728;42.722;23.258;2024-03-25T03:56:42;1.40;;;1.30;;
11346;SDS011;5728;42.722;23.258;2024-03-25T03:59:09;2.33;;;1.70;;
11346;SDS011;5728;42.722;23.258;2024-03-25T04:01:35;1.97;;;1.77;;
11346;SDS011;5728;42.722;23.258;2024-03-25T04:04:02;2.00;;;1.70;;
11346;SDS011;5728;42.722;23.258;2024-03-25T04:06:30;2.03;;;1.83;;
11346;SDS011;5728;42.722;23.258;2024-03-25T04:08:58;2.67;;;2.10;;
11346;SDS011;5728;42.722;23.258;2024-03-25T04:11:24;1.97;;;1.83;;
11346;SDS011;5728;42.722;23.258;2024-03-25T04:13:51;2.33;;;1.80;;
11346;SDS011;5728;42.722;23.258;2024-03-25T04:16:18;1.70;;;1.60;;
11346;SDS011;5728;42.722;23.258;2024-03-25T04:18:45;2.57;;;2.17;;
11346;SDS011;5728;42.722;23.258;2024-03-25T04:21:13;3.13;;;2.57;;
11346;SDS011;5728;42.722;23.258;2024-03-25T04:23:40;2.77;;;2.23;;
11346;SDS011;5728;42.722;23.258;2024-03-25T04:26:08;2.73;;;2.30;;
11346;SDS011;5728;42.722;23.258;2024-03-25T04:28:35;3.53;;;2.43;;
11346;SDS011;5728;42.722;23.258;2024-03-25T04:31:01;4.50;;;3.07;;
11346;SDS011;5728;42.722;23.258;2024-03-25T04:33:28;7.30;;;3.00;;
11346;SDS011;5728;42.722;23.258;2024-03-25T04:35:54;2.90;;;2.60;;
11346;SDS011;5728;42.722;23.258;2024-03-25T04:38:21;13.70;;;6.60;;
11346;SDS011;5728;42.722;23.258;2024-03-25T04:40:47;7.60;;;4.97;;
11346;SDS011;5728;42.722;23.258;2024-03-25T04:43:15;6.20;;;4.20;;
11346;SDS011;5728;42.722;23.258;2024-03-25T04:45:41;5.93;;;4.80;;
11346;SDS011;5728;42.722;23.258;2024-03-25T04:48:07;4.23;;;3.77;;
11346;SDS011;5728;42.722;23.258;2024-03-25T04:50:33;5.90;;;4.03;;
11346;SDS011;5728;42.722;23.258;2024-03-25T04:52:59;7.68;;;5.00;;
11346;SDS011;5728;42.722;23.258;2024-03-25T04:55:25;4.63;;;3.93;;
11346;SDS011;5728;42.722;23.258;2024-03-25T04:57:51;6.87;;;4.07;;
11346;SDS011;5728;42.722;23.258;2024-03-25T05:00:18;8.53;;;4.73;;
11346;SDS011;5728;42.722;23.258;2024-03-25T05:02:44;4.80;;;3.57;;
11346;SDS011;5728;42.722;23.258;2024-03-25T05:05:10;9.43;;;4.87;;
11346;SDS011;5728;42.722;23.258;2024-03-25T05:07:36;10.43;;;5.30;;
11346;SDS011;5728;42.722;23.258;2024-03-25T05:10:03;7.70;;;5.23;;
11346;SDS011;5728;42.722;23.258;2024-03-25T05:12:29;8.53;;;5.47;;
11346;SDS011;5728;42.722;23.258;2024-03-25T05:14:55;9.07;;;5.80;;
11346;SDS011;5728;42.722;23.258;2024-03-25T05:17:23;6.87;;;5.47;;
11346;SDS011;5728;42.722;23.258;2024-03-25T05:19:49;6.97;;;5.60;;
11346;SDS011;5728;42.722;23.258;2024-03-25T05:22:15;6.07;;;4.67;;
11346;SDS011;5728;42.722;23.258;2024-03-25T05:24:41;6.70;;;5.40;;
11346;SDS011;5728;42.722;23.258;2024-03-25T05:27:07;6.93;;;5.47;;
11346;SDS011;5728;42.722;23.258;2024-03-25T05:29:33;8.30;;;5.57;;
11346;SDS011;5728;42.722;23.258;2024-03-25T05:31:59;11.43;;;5.50;;
11346;SDS011;5728;42.722;23.258;2024-03-25T05:34:27;6.13;;;4.77;;
11346;SDS011;5728;42.722;23.258;2024-03-25T05:36:54;8.03;;;6.23;;
11346;SDS011;5728;42.722;23.258;2024-03-25T05:39:20;7.73;;;5.50;;
11346;SDS011;5728;42.722;23.258;2024-03-25T05:41:46;6.50;;;5.77;;
11346;SDS011;5728;42.722;23.258;2024-03-25T05:44:13;9.27;;;6.07;;
11346;SDS011;5728;42.722;23.258;2024-03-25T05:46:39;8.93;;;6.67;;
11346;SDS011;5728;42.722;23.258;2024-03-25T05:49:05;7.07;;;5.83;;
11346;SDS011;5728;42.722;23.258;2024-03-25T05:51:33;7.43;;;5.73;;
11346;SDS011;5728;42.722;23.258;2024-03-25T05:53:59;9.87;;;6.70;;
11346;SDS011;5728;42.722;23.258;2024-03-25T05:56:25;9.50;;;6.60;;
11346;SDS011;5728;42.722;23.258;2024-03-25T05:58:52;9.90;;;6.70;;
11346;SDS011;5728;42.722;23.258;2024-03-25T06:01:18;9.57;;;6.63;;
11346;SDS011;5728;42.722;23.258;2024-03-25T06:03:44;8.67;;;6.10;;
11346;SDS011;5728;42.722;23.258;2024-03-25T06:06:10;9.13;;;6.53;;
11346;SDS011;5728;42.722;23.258;2024-03-25T06:08:37;8.17;;;6.50;;
11346;SDS011;5728;42.722;23.258;2024-03-25T06:11:03;10.80;;;6.50;;
11346;SDS011;5728;42.722;23.258;2024-03-25T06:13:29;7.53;;;6.43;;
11346;SDS011;5728;42.722;23.258;2024-03-25T06:15:56;8.43;;;6.20;;
11346;SDS011;5728;42.722;23.258;2024-03-25T06:18:22;6.50;;;5.33;;
11346;SDS011;5728;42.722;23.258;2024-03-25T06:20:48;8.90;;;6.17;;
11346;SDS011;5728;42.722;23.258;2024-03-25T06:23:21;9.57;;;6.53;;
11346;SDS011;5728;42.722;23.258;2024-03-25T06:25:50;11.17;;;6.37;;
11346;SDS011;5728;42.722;23.258;2024-03-25T06:28:17;11.80;;;7.37;;
11346;SDS011;5728;42.722;23.258;2024-03-25T06:30:43;9.33;;;6.30;;
11346;SDS011;5728;42.722;23.258;2024-03-25T06:33:29;9.17;;;6.40;;
11346;SDS011;5728;42.722;23.258;2024-03-25T06:36:12;11.93;;;4.37;;
11346;SDS011;5728;42.722;23.258;2024-03-25T06:38:38;7.93;;;5.87;;
11346;SDS011;5728;42.722;23.258;2024-03-25T06:41:06;8.20;;;5.90;;
11346;SDS011;5728;42.722;23.258;2024-03-25T06:43:32;8.63;;;6.50;;
11346;SDS011;5728;42.722;23.258;2024-03-25T06:45:58;7.83;;;6.20;;
11346;SDS011;5728;42.722;23.258;2024-03-25T06:48:24;10.53;;;7.30;;
11346;SDS011;5728;42.722;23.258;2024-03-25T06:50:54;9.77;;;6.73;;
11346;SDS011;5728;42.722;23.258;2024-03-25T06:53:20;5.60;;;4.73;;
11346;SDS011;5728;42.722;23.258;2024-03-25T06:55:53;7.37;;;6.00;;
11346;SDS011;5728;42.722;23.258;2024-03-25T06:58:21;8.83;;;6.50;;
11346;SDS011;5728;42.722;23.258;2024-03-25T07:00:47;10.73;;;7.03;;
11346;SDS011;5728;42.722;23.258;2024-03-25T07:03:14;9.83;;;7.23;;
11346;SDS011;5728;42.722;23.258;2024-03-25T07:05:40;9.20;;;6.60;;
11346;SDS011;5728;42.722;23.258;2024-03-25T07:08:06;12.25;;;6.90;;
11346;SDS011;5728;42.722;23.258;2024-03-25T07:10:32;8.95;;;6.75;;
11346;SDS011;5728;42.722;23.258;2024-03-25T07:12:58;9.60;;;6.37;;
11346;SDS011;5728;42.722;23.258;2024-03-25T07:15:25;9.90;;;6.57;;
11346;SDS011;5728;42.722;23.258;2024-03-25T07:17:51;9.10;;;6.10;;
11346;SDS011;5728;42.722;23.258;2024-03-25T07:20:17;5.20;;;4.47;;
11346;SDS011;5728;42.722;23.258;2024-03-25T07:22:43;8.95;;;6.00;;
11346;SDS011;5728;42.722;23.258;2024-03-25T07:25:09;8.53;;;6.20;;
11346;SDS011;5728;42.722;23.258;2024-03-25T07:27:35;8.57;;;6.23;;
11346;SDS011;5728;42.722;23.258;2024-03-25T07:30:01;8.23;;;5.80;;
11346;SDS011;5728;42.722;23.258;2024-03-25T07:32:29;6.93;;;5.73;;
11346;SDS011;5728;42.722;23.258;2024-03-25T07:34:55;6.10;;;4.90;;
11346;SDS011;5728;42.722;23.258;2024-03-25T07:37:21;5.93;;;4.50;;
11346;SDS011;5728;42.722;23.258;2024-03-25T07:39:47;7.00;;;5.83;;
11346;SDS011;5728;42.722;23.258;2024-03-25T07:42:13;7.40;;;6.07;;
11346;SDS011;5728;42.722;23.258;2024-03-25T07:44:39;8.83;;;6.00;;
11346;SDS011;5728;42.722;23.258;2024-03-25T07:47:05;6.23;;;5.60;;
11346;SDS011;5728;42.722;23.258;2024-03-25T07:49:33;8.80;;;5.80;;
11346;SDS011;5728;42.722;23.258;2024-03-25T07:51:59;6.20;;;5.27;;
11346;SDS011;5728;42.722;23.258;2024-03-25T07:54:25;8.23;;;5.47;;
11346;SDS011;5728;42.722;23.258;2024-03-25T07:56:51;5.60;;;4.37;;
11346;SDS011;5728;42.722;23.258;2024-03-25T07:59:17;6.30;;;5.30;;
11346;SDS011;5728;42.722;23.258;2024-03-25T08:01:43;8.63;;;5.40;;
11346;SDS011;5728;42.722;23.258;2024-03-25T08:04:09;5.80;;;5.20;;
11346;SDS011;5728;42.722;23.258;2024-03-25T08:06:36;6.43;;;4.77;;
11346;SDS011;5728;42.722;23.258;2024-03-25T08:09:02;6.07;;;5.20;;
11346;SDS011;5728;42.722;23.258;2024-03-25T08:11:29;5.13;;;4.63;;
11346;SDS011;5728;42.722;23.258;2024-03-25T08:13:55;5.47;;;4.97;;
11346;SDS011;5728;42.722;23.258;2024-03-25T08:16:21;4.50;;;3.10;;
11346;SDS011;5728;42.722;23.258;2024-03-25T08:18:47;5.47;;;4.40;;
11346;SDS011;5728;42.722;23.258;2024-03-25T08:21:14;5.53;;;4.67;;
11346;SDS011;5728;42.722;23.258;2024-03-25T08:23:45;9.17;;;5.53;;
11346;SDS011;5728;42.722;23.258;2024-03-25T08:26:13;5.73;;;5.07;;
11346;SDS011;5728;42.722;23.258;2024-03-25T08:28:39;4.90;;;4.40;;
11346;SDS011;5728;42.722;23.258;2024-03-25T08:31:05;5.37;;;3.80;;
11346;SDS011;5728;42.722;23.258;2024-03-25T08:33:31;5.23;;;4.37;;
11346;SDS011;5728;42.722;23.258;2024-03-25T08:35:57;7.30;;;5.30;;
11346;SDS011;5728;42.722;23.258;2024-03-25T08:38:23;5.07;;;4.50;;
11346;SDS011;5728;42.722;23.258;2024-03-25T08:40:52;6.20;;;4.43;;
11346;SDS011;5728;42.722;23.258;2024-03-25T08:43:18;4.97;;;4.17;;
11346;SDS011;5728;42.722;23.258;2024-03-25T08:45:44;5.90;;;5.30;;
11346;SDS011;5728;42.722;23.258;2024-03-25T08:48:10;5.53;;;4.87;;
11346;SDS011;5728;42.722;23.258;2024-03-25T08:50:36;5.30;;;4.60;;
11346;SDS011;5728;42.722;23.258;2024-03-25T08:53:02;4.27;;;3.63;;
11346;SDS011;5728;42.722;23.258;2024-03-25T08:55:30;7.50;;;4.07;;
11346;SDS011;5728;42.722;23.258;2024-03-25T08:57:58;5.47;;;3.93;;
11346;SDS011;5728;42.722;23.258;2024-03-25T09:00:24;5.00;;;4.03;;
11346;SDS011;5728;42.722;23.258;2024-03-25T09:02:50;7.17;;;4.93;;
11346;SDS011;5728;42.722;23.258;2024-03-25T09:05:16;6.53;;;4.33;;
11346;SDS011;5728;42.722;23.258;2024-03-25T09:07:43;3.97;;;3.53;;
11346;SDS011;5728;42.722;23.258;2024-03-25T09:10:10;5.70;;;4.23;;
11346;SDS011;5728;42.722;23.258;2024-03-25T09:12:54;6.90;;;4.93;;
11346;SDS011;5728;42.722;23.258;2024-03-25T09:15:21;4.43;;;3.50;;
11346;SDS011;5728;42.722;23.258;2024-03-25T09:17:48;5.20;;;4.70;;
11346;SDS011;5728;42.722;23.258;2024-03-25T09:20:14;5.37;;;4.10;;
11346;SDS011;5728;42.722;23.258;2024-03-25T09:22:41;5.20;;;4.70;;
11346;SDS011;5728;42.722;23.258;2024-03-25T09:25:08;7.20;;;5.33;;
11346;SDS011;5728;42.722;23.258;2024-03-25T09:27:34;7.07;;;5.50;;
11346;SDS011;5728;42.722;23.258;2024-03-25T09:30:00;6.83;;;5.87;;
11346;SDS011;5728;42.722;23.258;2024-03-25T09:32:29;8.00;;;4.90;;
11346;SDS011;5728;42.722;23.258;2024-03-25T09:34:55;6.33;;;4.50;;
11346;SDS011;5728;42.722;23.258;2024-03-25T09:37:21;5.73;;;4.67;;
11346;SDS011;5728;42.722;23.258;2024-03-25T09:39:47;6.60;;;5.63;;
11346;SDS011;5728;42.722;23.258;2024-03-25T09:42:14;6.17;;;4.97;;
11346;SDS011;5728;42.722;23.258;2024-03-25T09:44:41;5.33;;;3.97;;
11346;SDS011;5728;42.722;23.258;2024-03-25T09:47:07;4.07;;;3.33;;
11346;SDS011;5728;42.722;23.258;2024-03-25T09:49:34;7.70;;;4.83;;
11346;SDS011;5728;42.722;23.258;2024-03-25T09:52:02;4.87;;;4.37;;
11346;SDS011;5728;42.722;23.258;2024-03-25T09:54:28;4.13;;;3.73;;
11346;SDS011;5728;42.722;23.258;2024-03-25T09:56:54;3.97;;;3.63;;
11346;SDS011;5728;42.722;23.258;2024-03-25T09:59:21;4.93;;;3.77;;
11346;SDS011;5728;42.722;23.258;2024-03-25T10:01:47;5.73;;;3.93;;
11346;SDS011;5728;42.722;23.258;2024-03-25T10:04:13;5.33;;;3.83;;
11346;SDS011;5728;42.722;23.258;2024-03-25T10:06:41;4.90;;;4.40;;
11346;SDS011;5728;42.722;23.258;2024-03-25T10:09:07;6.63;;;3.40;;
11346;SDS011;5728;42.722;23.258;2024-03-25T10:11:34;5.33;;;3.77;;
11346;SDS011;5728;42.722;23.258;2024-03-25T10:14:00;4.67;;;3.87;;
11346;SDS011;5728;42.722;23.258;2024-03-25T10:16:27;3.60;;;3.10;;
11346;SDS011;5728;42.722;23.258;2024-03-25T10:18:53;6.87;;;3.97;;
11346;SDS011;5728;42.722;23.258;2024-03-25T10:21:19;4.10;;;3.13;;
11346;SDS011;5728;42.722;23.258;2024-03-25T10:23:48;4.03;;;3.23;;
11346;SDS011;5728;42.722;23.258;2024-03-25T10:26:27;2.97;;;2.70;;
11346;SDS011;5728;42.722;23.258;2024-03-25T10:29:00;7.67;;;3.27;;
11346;SDS011;5728;42.722;23.258;2024-03-25T10:31:27;3.43;;;3.13;;
11346;SDS011;5728;42.722;23.258;2024-03-25T10:33:53;4.40;;;3.00;;
11346;SDS011;5728;42.722;23.258;2024-03-25T10:36:19;5.57;;;2.57;;
11346;SDS011;5728;42.722;23.258;2024-03-25T10:38:48;2.50;;;2.30;;
11346;SDS011;5728;42.722;23.258;2024-03-25T10:41:17;3.27;;;2.97;;
11346;SDS011;5728;42.722;23.258;2024-03-25T10:43:45;2.63;;;2.43;;
11346;SDS011;5728;42.722;23.258;2024-03-25T10:46:13;5.33;;;3.20;;
11346;SDS011;5728;42.722;23.258;2024-03-25T10:48:43;2.97;;;2.67;;
11346;SDS011;5728;42.722;23.258;2024-03-25T10:51:19;5.00;;;2.93;;
11346;SDS011;5728;42.722;23.258;2024-03-25T10:53:48;2.97;;;2.73;;
11346;SDS011;5728;42.722;23.258;2024-03-25T10:56:18;3.40;;;2.97;;
11346;SDS011;5728;42.722;23.258;2024-03-25T10:58:46;3.73;;;3.40;;
11346;SDS011;5728;42.722;23.258;2024-03-25T11:01:14;3.27;;;2.50;;
11346;SDS011;5728;42.722;23.258;2024-03-25T11:03:42;3.20;;;2.50;;
11346;SDS011;5728;42.722;23.258;2024-03-25T11:06:09;3.50;;;3.20;;
11346;SDS011;5728;42.722;23.258;2024-03-25T11:08:36;3.50;;;3.07;;
11346;SDS011;5728;42.722;23.258;2024-03-25T11:11:03;2.50;;;2.30;;
11346;SDS011;5728;42.722;23.258;2024-03-25T11:13:31;2.63;;;2.10;;
11346;SDS011;5728;42.722;23.258;2024-03-25T11:15:57;2.93;;;2.63;;
11346;SDS011;5728;42.722;23.258;2024-03-25T11:18:24;4.00;;;2.37;;
11346;SDS011;5728;42.722;23.258;2024-03-25T11:21:00;3.20;;;2.67;;
11346;SDS011;5728;42.722;23.258;2024-03-25T11:23:34;2.60;;;2.40;;
11346;SDS011;5728;42.722;23.258;2024-03-25T11:26:03;2.53;;;2.33;;
11346;SDS011;5728;42.722;23.258;2024-03-25T11:28:29;2.57;;;2.37;;
11346;SDS011;5728;42.722;23.258;2024-03-25T11:30:55;3.10;;;2.80;;
11346;SDS011;5728;42.722;23.258;2024-03-25T11:33:21;2.40;;;2.20;;
11346;SDS011;5728;42.722;23.258;2024-03-25T11:35:48;3.17;;;2.73;;
11346;SDS011;5728;42.722;23.258;2024-03-25T11:38:14;3.03;;;2.00;;
11346;SDS011;5728;42.722;23.258;2024-03-25T11:40:43;3.50;;;3.20;;
11346;SDS011;5728;42.722;23.258;2024-03-25T11:43:18;3.40;;;1.97;;
11346;SDS011;5728;42.722;23.258;2024-03-25T11:45:46;2.70;;;2.20;;
11346;SDS011;5728;42.722;23.258;2024-03-25T11:48:13;2.93;;;2.23;;
11346;SDS011;5728;42.722;23.258;2024-03-25T11:50:40;2.60;;;2.40;;
11346;SDS011;5728;42.722;23.258;2024-03-25T11:53:06;2.37;;;2.17;;
11346;SDS011;5728;42.722;23.258;2024-03-25T11:55:33;2.10;;;1.90;;
11346;SDS011;5728;42.722;23.258;2024-03-25T11:57:59;3.10;;;1.83;;
11346;SDS011;5728;42.722;23.258;2024-03-25T12:00:26;2.83;;;2.47;;
11346;SDS011;5728;42.722;23.258;2024-03-25T12:02:52;2.73;;;2.50;;
11346;SDS011;5728;42.722;23.258;2024-03-25T12:05:19;3.27;;;2.73;;
11346;SDS011;5728;42.722;23.258;2024-03-25T12:07:45;2.27;;;2.00;;
11346;SDS011;5728;42.722;23.258;2024-03-25T12:10:11;3.13;;;2.83;;
11346;SDS011;5728;42.722;23.258;2024-03-25T12:12:55;1.93;;;1.73;;
11346;SDS011;5728;42.722;23.258;2024-03-25T12:15:21;2.23;;;2.03;;
11346;SDS011;5728;42.722;23.258;2024-03-25T12:17:49;4.07;;;2.50;;
11346;SDS011;5728;42.722;23.258;2024-03-25T12:20:16;3.67;;;2.77;;
11346;SDS011;5728;42.722;23.258;2024-03-25T12:22:43;2.60;;;2.40;;
11346;SDS011;5728;42.722;23.258;2024-03-25T12:25:09;3.60;;;2.60;;
11346;SDS011;5728;42.722;23.258;2024-03-25T12:27:36;3.07;;;2.57;;
11346;SDS011;5728;42.722;23.258;2024-03-25T12:30:04;2.97;;;2.70;;
11346;SDS011;5728;42.722;23.258;2024-03-25T12:32:31;2.50;;;2.30;;
11346;SDS011;5728;42.722;23.258;2024-03-25T12:35:03;3.17;;;2.50;;
11346;SDS011;5728;42.722;23.258;2024-03-25T12:37:32;2.17;;;1.80;;
11346;SDS011;5728;42.722;23.258;2024-03-25T12:39:58;2.87;;;2.60;;
11346;SDS011;5728;42.722;23.258;2024-03-25T12:42:23;2.87;;;2.53;;
11346;SDS011;5728;42.722;23.258;2024-03-25T12:44:50;2.87;;;2.23;;
11346;SDS011;5728;42.722;23.258;2024-03-25T12:47:16;2.43;;;2.23;;
11346;SDS011;5728;42.722;23.258;2024-03-25T12:49:42;2.97;;;2.57;;
11346;SDS011;5728;42.722;23.258;2024-03-25T12:52:10;2.60;;;2.40;;
11346;SDS011;5728;42.722;23.258;2024-03-25T12:54:37;2.30;;;2.17;;
11346;SDS011;5728;42.722;23.258;2024-03-25T12:57:03;2.93;;;2.63;;
11346;SDS011;5728;42.722;23.258;2024-03-25T12:59:30;3.27;;;2.37;;
11346;SDS011;5728;42.722;23.258;2024-03-25T13:01:56;2.93;;;2.63;;
11346;SDS011;5728;42.722;23.258;2024-03-25T13:04:22;2.47;;;2.27;;
11346;SDS011;5728;42.722;23.258;2024-03-25T13:06:48;3.07;;;2.80;;
11346;SDS011;5728;42.722;23.258;2024-03-25T13:09:15;5.20;;;3.00;;
11346;SDS011;5728;42.722;23.258;2024-03-25T13:11:41;3.37;;;2.70;;
11346;SDS011;5728;42.722;23.258;2024-03-25T13:14:10;2.93;;;2.63;;
11346;SDS011;5728;42.722;23.258;2024-03-25T13:16:37;4.17;;;2.80;;
11346;SDS011;5728;42.722;23.258;2024-03-25T13:19:03;5.60;;;2.77;;
11346;SDS011;5728;42.722;23.258;2024-03-25T13:21:29;2.67;;;2.47;;
11346;SDS011;5728;42.722;23.258;2024-03-25T13:23:55;4.97;;;2.57;;
11346;SDS011;5728;42.722;23.258;2024-03-25T13:26:22;3.10;;;2.80;;
11346;SDS011;5728;42.722;23.258;2024-03-25T13:28:48;2.67;;;2.20;;
11346;SDS011;5728;42.722;23.258;2024-03-25T13:31:14;2.80;;;2.53;;
11346;SDS011;5728;42.722;23.258;2024-03-25T13:33:41;1.53;;;1.43;;
11346;SDS011;5728;42.722;23.258;2024-03-25T13:36:07;2.77;;;2.20;;
11346;SDS011;5728;42.722;23.258;2024-03-25T13:38:34;2.97;;;2.50;;
11346;SDS011;5728;42.722;23.258;2024-03-25T13:41:00;2.23;;;2.00;;
11346;SDS011;5728;42.722;23.258;2024-03-25T13:43:28;2.53;;;2.23;;
11346;SDS011;5728;42.722;23.258;2024-03-25T13:45:54;6.00;;;2.53;;
11346;SDS011;5728;42.722;23.258;2024-03-25T13:48:20;3.83;;;1.60;;
11346;SDS011;5728;42.722;23.258;2024-03-25T13:50:47;2.10;;;1.90;;
11346;SDS011;5728;42.722;23.258;2024-03-25T13:53:13;1.60;;;1.50;;
11346;SDS011;5728;42.722;23.258;2024-03-25T13:55:40;1.80;;;1.33;;
11346;SDS011;5728;42.722;23.258;2024-03-25T13:58:06;2.40;;;1.37;;
11346;SDS011;5728;42.722;23.258;2024-03-25T14:00:33;1.30;;;1.20;;
11346;SDS011;5728;42.722;23.258;2024-03-25T14:02:59;1.47;;;1.37;;
11346;SDS011;5728;42.722;23.258;2024-03-25T14:05:25;1.20;;;1.10;;
11346;SDS011;5728;42.722;23.258;2024-03-25T14:07:52;1.67;;;1.57;;
11346;SDS011;5728;42.722;23.258;2024-03-25T14:10:18;2.07;;;1.87;;
11346;SDS011;5728;42.722;23.258;2024-03-25T14:12:44;9.77;;;3.07;;
11346;SDS011;5728;42.722;23.258;2024-03-25T14:15:10;4.57;;;2.17;;
11346;SDS011;5728;42.722;23.258;2024-03-25T14:17:37;1.87;;;1.77;;
11346;SDS011;5728;42.722;23.258;2024-03-25T14:20:04;1.80;;;1.70;;
11346;SDS011;5728;42.722;23.258;2024-03-25T14:22:31;2.80;;;2.20;;
11346;SDS011;5728;42.722;23.258;2024-03-25T14:24:57;1.70;;;1.60;;
11346;SDS011;5728;42.722;23.258;2024-03-25T14:27:23;2.33;;;2.13;;
11346;SDS011;5728;42.722;23.258;2024-03-25T14:29:49;2.77;;;1.73;;
11346;SDS011;5728;42.722;23.258;2024-03-25T14:32:15;2.10;;;1.60;;
11346;SDS011;5728;42.722;23.258;2024-03-25T14:34:45;1.67;;;1.57;;
11346;SDS011;5728;42.722;23.258;2024-03-25T14:37:12;1.50;;;1.40;;
11346;SDS011;5728;42.722;23.258;2024-03-25T14:39:38;1.50;;;1.40;;
11346;SDS011;5728;42.722;23.258;2024-03-25T14:42:04;1.83;;;1.50;;
11346;SDS011;5728;42.722;23.258;2024-03-25T14:44:30;2.07;;;1.60;;
11346;SDS011;5728;42.722;23.258;2024-03-25T14:46:56;1.73;;;1.53;;